AUA57U LIRN-LOWW
Flight info
| Callsign | AUA57U |
|---|---|
| Flight time | 1h 16m |
| Altitude | 36000 |
| Route | BEDPI DCT MOLUX DCT VAPUP/N0451F370 DCT NIVES DCT OBUTI OBUTI2W |
| Aircraft | A320/M-SDE3FGHIRWY/LB1 |
Departure
| Time | 2026-04-21 16:47 |
|---|---|
| Airport | Naples International Airport (LIRN) |
Arrival
| Time | 2026-04-21 18:03 |
|---|---|
| Airport | Vienna International Airport (LOWW) |
| Time | Latitude | Longitude | Altitude | Speed | Heading |
|---|---|---|---|---|---|
| 2026-04-21 16:35 | 40.87874 | 14.28342 | 290 ft | 0 kts | 187° |
| 2026-04-21 16:35 | 40.87875 | 14.28342 | 290 ft | 2 kts | 187° |
| 2026-04-21 16:35 | 40.87900 | 14.28346 | 294 ft | 4 kts | 189° |
| 2026-04-21 16:35 | 40.87925 | 14.28357 | 292 ft | 4 kts | 216° |
| 2026-04-21 16:36 | 40.87940 | 14.28381 | 294 ft | 4 kts | 264° |
| 2026-04-21 16:36 | 40.87940 | 14.28396 | 288 ft | 1 kts | 276° |
| 2026-04-21 16:36 | 40.87940 | 14.28397 | 288 ft | 1 kts | 276° |
| 2026-04-21 16:39 | 40.87942 | 14.28379 | 289 ft | 5 kts | 276° |
| 2026-04-21 16:39 | 40.87947 | 14.28324 | 289 ft | 5 kts | 276° |
| 2026-04-21 16:40 | 40.87950 | 14.28287 | 290 ft | 3 kts | 277° |
| 2026-04-21 16:40 | 40.87952 | 14.28271 | 290 ft | 1 kts | 277° |
| 2026-04-21 16:40 | 40.87954 | 14.28248 | 290 ft | 7 kts | 277° |
| 2026-04-21 16:40 | 40.87962 | 14.28175 | 291 ft | 7 kts | 279° |
| 2026-04-21 16:41 | 40.88002 | 14.28132 | 292 ft | 11 kts | 0° |
| 2026-04-21 16:41 | 40.88053 | 14.28208 | 292 ft | 12 kts | 58° |
| 2026-04-21 16:41 | 40.88062 | 14.28321 | 288 ft | 13 kts | 96° |
| 2026-04-21 16:41 | 40.88051 | 14.28444 | 286 ft | 14 kts | 97° |
| 2026-04-21 16:42 | 40.88042 | 14.28574 | 286 ft | 14 kts | 86° |
| 2026-04-21 16:42 | 40.88094 | 14.28690 | 281 ft | 15 kts | 53° |
| 2026-04-21 16:42 | 40.88161 | 14.28807 | 278 ft | 17 kts | 52° |
| 2026-04-21 16:42 | 40.88233 | 14.28931 | 275 ft | 17 kts | 52° |
| 2026-04-21 16:43 | 40.88308 | 14.29062 | 272 ft | 18 kts | 52° |
| 2026-04-21 16:43 | 40.88387 | 14.29199 | 269 ft | 19 kts | 53° |
| 2026-04-21 16:43 | 40.88470 | 14.29341 | 265 ft | 20 kts | 53° |
| 2026-04-21 16:43 | 40.88555 | 14.29490 | 261 ft | 21 kts | 53° |
| 2026-04-21 16:44 | 40.88644 | 14.29643 | 256 ft | 21 kts | 52° |
| 2026-04-21 16:44 | 40.88737 | 14.29802 | 251 ft | 22 kts | 52° |
| 2026-04-21 16:44 | 40.88824 | 14.29954 | 246 ft | 20 kts | 53° |
| 2026-04-21 16:44 | 40.88910 | 14.30103 | 241 ft | 19 kts | 52° |
| 2026-04-21 16:45 | 40.88985 | 14.30233 | 236 ft | 19 kts | 53° |
| 2026-04-21 16:45 | 40.89054 | 14.30353 | 232 ft | 13 kts | 52° |
| 2026-04-21 16:45 | 40.89114 | 14.30443 | 228 ft | 13 kts | 33° |
| 2026-04-21 16:45 | 40.89195 | 14.30423 | 227 ft | 9 kts | 321° |
| 2026-04-21 16:46 | 40.89212 | 14.30368 | 227 ft | 5 kts | 256° |
| 2026-04-21 16:46 | 40.89201 | 14.30344 | 230 ft | 3 kts | 239° |
| 2026-04-21 16:46 | 40.89103 | 14.30131 | 236 ft | 62 kts | 238° |
| 2026-04-21 16:46 | 40.88767 | 14.29423 | 258 ft | 120 kts | 238° |
| 2026-04-21 16:47 | 40.88253 | 14.28332 | 468 ft | 147 kts | 235° |
| 2026-04-21 16:47 | 40.87646 | 14.27261 | 1188 ft | 147 kts | 217° |
| 2026-04-21 16:47 | 40.86691 | 14.26746 | 1821 ft | 155 kts | 184° |
| 2026-04-21 16:47 | 40.85608 | 14.26793 | 2480 ft | 159 kts | 178° |
| 2026-04-21 16:48 | 40.84494 | 14.26944 | 3132 ft | 161 kts | 177° |
| 2026-04-21 16:48 | 40.83374 | 14.27096 | 3751 ft | 164 kts | 178° |
| 2026-04-21 16:48 | 40.82162 | 14.27250 | 4087 ft | 186 kts | 178° |
| 2026-04-21 16:48 | 40.80802 | 14.27417 | 4467 ft | 204 kts | 178° |
| 2026-04-21 16:49 | 40.79372 | 14.27591 | 5068 ft | 208 kts | 178° |
| 2026-04-21 16:49 | 40.77917 | 14.27770 | 5686 ft | 211 kts | 179° |
| 2026-04-21 16:49 | 40.76442 | 14.27950 | 6316 ft | 214 kts | 179° |
| 2026-04-21 16:49 | 40.74948 | 14.28136 | 6928 ft | 217 kts | 179° |
| 2026-04-21 16:50 | 40.73443 | 14.28358 | 7479 ft | 223 kts | 172° |
| 2026-04-21 16:50 | 40.72070 | 14.29381 | 8045 ft | 237 kts | 132° |
| 2026-04-21 16:50 | 40.71412 | 14.31393 | 8435 ft | 252 kts | 92° |
| 2026-04-21 16:50 | 40.71659 | 14.33703 | 8865 ft | 259 kts | 73° |
| 2026-04-21 16:51 | 40.72083 | 14.36062 | 9563 ft | 266 kts | 74° |
| 2026-04-21 16:51 | 40.72485 | 14.38460 | 10363 ft | 270 kts | 75° |
| 2026-04-21 16:51 | 40.72980 | 14.40859 | 11110 ft | 271 kts | 62° |
| 2026-04-21 16:51 | 40.73936 | 14.42981 | 11857 ft | 269 kts | 44° |
| 2026-04-21 16:52 | 40.75316 | 14.44651 | 12254 ft | 282 kts | 26° |
| 2026-04-21 16:52 | 40.77092 | 14.45939 | 12562 ft | 302 kts | 21° |
| 2026-04-21 16:52 | 40.79034 | 14.47262 | 12839 ft | 326 kts | 22° |
| 2026-04-21 16:52 | 40.81110 | 14.48705 | 13067 ft | 349 kts | 22° |
| 2026-04-21 16:53 | 40.83320 | 14.50258 | 13372 ft | 367 kts | 23° |
| 2026-04-21 16:53 | 40.85594 | 14.51862 | 14035 ft | 374 kts | 23° |
| 2026-04-21 16:53 | 40.87904 | 14.53490 | 14731 ft | 377 kts | 23° |
| 2026-04-21 16:53 | 40.90229 | 14.55129 | 15425 ft | 381 kts | 22° |
| 2026-04-21 16:54 | 40.92627 | 14.56593 | 16084 ft | 378 kts | 11° |
| 2026-04-21 16:54 | 40.95180 | 14.57389 | 16767 ft | 378 kts | 6° |
| 2026-04-21 16:54 | 40.97763 | 14.58113 | 17452 ft | 381 kts | 6° |
| 2026-04-21 16:54 | 41.00366 | 14.58860 | 18099 ft | 385 kts | 6° |
| 2026-04-21 16:55 | 41.02998 | 14.59622 | 18668 ft | 388 kts | 6° |
| 2026-04-21 16:55 | 41.05639 | 14.60394 | 19265 ft | 390 kts | 6° |
| 2026-04-21 16:55 | 41.08302 | 14.61179 | 19861 ft | 392 kts | 6° |
| 2026-04-21 16:55 | 41.10975 | 14.61959 | 20419 ft | 395 kts | 6° |
| 2026-04-21 16:56 | 41.13668 | 14.62741 | 21001 ft | 397 kts | 6° |
| 2026-04-21 16:56 | 41.16371 | 14.63527 | 21532 ft | 400 kts | 6° |
| 2026-04-21 16:56 | 41.19094 | 14.64323 | 22136 ft | 401 kts | 6° |
| 2026-04-21 16:56 | 41.21828 | 14.65119 | 22710 ft | 403 kts | 6° |
| 2026-04-21 16:57 | 41.24575 | 14.65921 | 23280 ft | 405 kts | 6° |
| 2026-04-21 16:57 | 41.27338 | 14.66736 | 23790 ft | 408 kts | 6° |
| 2026-04-21 16:57 | 41.30119 | 14.67556 | 24222 ft | 410 kts | 6° |
| 2026-04-21 16:57 | 41.32914 | 14.68373 | 24645 ft | 413 kts | 6° |
| 2026-04-21 16:58 | 41.35731 | 14.69203 | 25073 ft | 416 kts | 6° |
| 2026-04-21 16:58 | 41.38527 | 14.70021 | 25476 ft | 418 kts | 6° |
| 2026-04-21 16:58 | 41.41374 | 14.70864 | 25886 ft | 421 kts | 6° |
| 2026-04-21 16:58 | 41.44245 | 14.71711 | 26311 ft | 424 kts | 6° |
| 2026-04-21 16:59 | 41.47136 | 14.72566 | 26730 ft | 426 kts | 6° |
| 2026-04-21 16:59 | 41.50043 | 14.73425 | 27106 ft | 430 kts | 6° |
| 2026-04-21 16:59 | 41.52976 | 14.74294 | 27494 ft | 433 kts | 5° |
| 2026-04-21 16:59 | 41.55923 | 14.75155 | 27874 ft | 435 kts | 5° |
| 2026-04-21 17:00 | 41.58887 | 14.76028 | 28241 ft | 437 kts | 6° |
| 2026-04-21 17:00 | 41.61861 | 14.76917 | 28587 ft | 440 kts | 6° |
| 2026-04-21 17:00 | 41.63885 | 14.77520 | 28818 ft | 441 kts | 5° |
| 2026-04-21 17:00 | 41.67874 | 14.78692 | 29288 ft | 446 kts | 5° |
| 2026-04-21 17:01 | 41.70924 | 14.79600 | 29613 ft | 449 kts | 6° |
| 2026-04-21 17:01 | 41.73964 | 14.80514 | 30092 ft | 449 kts | 6° |
| 2026-04-21 17:01 | 41.77014 | 14.81426 | 30523 ft | 447 kts | 5° |
| 2026-04-21 17:01 | 41.80051 | 14.82333 | 30963 ft | 446 kts | 5° |
| 2026-04-21 17:02 | 41.83068 | 14.83231 | 31401 ft | 445 kts | 5° |
| 2026-04-21 17:02 | 41.86089 | 14.84126 | 31833 ft | 444 kts | 5° |
| 2026-04-21 17:02 | 41.89102 | 14.85034 | 32269 ft | 443 kts | 5° |
| 2026-04-21 17:02 | 41.92100 | 14.85938 | 32681 ft | 442 kts | 6° |
| 2026-04-21 17:03 | 41.95099 | 14.86835 | 33116 ft | 440 kts | 5° |
| 2026-04-21 17:03 | 41.98083 | 14.87721 | 33533 ft | 439 kts | 5° |
| 2026-04-21 17:03 | 42.01065 | 14.88607 | 33945 ft | 438 kts | 5° |
| 2026-04-21 17:03 | 42.04038 | 14.89500 | 34290 ft | 437 kts | 5° |
| 2026-04-21 17:04 | 42.06006 | 14.90089 | 34522 ft | 437 kts | 6° |
| 2026-04-21 17:04 | 42.09979 | 14.91298 | 34925 ft | 438 kts | 6° |
| 2026-04-21 17:04 | 42.12956 | 14.92197 | 35245 ft | 438 kts | 6° |
| 2026-04-21 17:04 | 42.15927 | 14.93091 | 35550 ft | 438 kts | 6° |
| 2026-04-21 17:05 | 42.18903 | 14.93992 | 35841 ft | 438 kts | 6° |
| 2026-04-21 17:05 | 42.21885 | 14.94900 | 35955 ft | 440 kts | 6° |
| 2026-04-21 17:05 | 42.24878 | 14.95803 | 35978 ft | 440 kts | 6° |
| 2026-04-21 17:06 | 42.30858 | 14.97607 | 35964 ft | 441 kts | 6° |
| 2026-04-21 17:06 | 42.36840 | 14.99434 | 35963 ft | 441 kts | 6° |
| 2026-04-21 17:07 | 42.41818 | 15.00941 | 35963 ft | 441 kts | 6° |
| 2026-04-21 17:07 | 42.48817 | 15.03072 | 35963 ft | 442 kts | 6° |
| 2026-04-21 17:08 | 42.54782 | 15.04894 | 35956 ft | 442 kts | 6° |
| 2026-04-21 17:08 | 42.60780 | 15.06719 | 35956 ft | 442 kts | 6° |
| 2026-04-21 17:09 | 42.68810 | 15.09191 | 35971 ft | 442 kts | 6° |
| 2026-04-21 17:09 | 42.74812 | 15.11036 | 35968 ft | 442 kts | 6° |
| 2026-04-21 17:10 | 42.80815 | 15.12886 | 35965 ft | 442 kts | 6° |
| 2026-04-21 17:10 | 42.86777 | 15.14718 | 35985 ft | 442 kts | 6° |
| 2026-04-21 17:11 | 42.92801 | 15.16571 | 35980 ft | 441 kts | 6° |
| 2026-04-21 17:11 | 42.98737 | 15.18419 | 35973 ft | 440 kts | 6° |
| 2026-04-21 17:12 | 43.04713 | 15.20287 | 35995 ft | 440 kts | 6° |
| 2026-04-21 17:12 | 43.10674 | 15.22133 | 35977 ft | 439 kts | 6° |
| 2026-04-21 17:13 | 43.16627 | 15.23997 | 35967 ft | 439 kts | 6° |
| 2026-04-21 17:13 | 43.22575 | 15.25871 | 35972 ft | 438 kts | 6° |
| 2026-04-21 17:14 | 43.28517 | 15.27737 | 35959 ft | 438 kts | 6° |
| 2026-04-21 17:14 | 43.34464 | 15.29614 | 35958 ft | 438 kts | 6° |
| 2026-04-21 17:15 | 43.40410 | 15.31470 | 35966 ft | 439 kts | 6° |
| 2026-04-21 17:15 | 43.46361 | 15.33357 | 35958 ft | 439 kts | 6° |
| 2026-04-21 17:16 | 43.52304 | 15.35240 | 35952 ft | 438 kts | 5° |
| 2026-04-21 17:16 | 43.58253 | 15.37124 | 35972 ft | 439 kts | 6° |
| 2026-04-21 17:17 | 43.64204 | 15.39015 | 35973 ft | 439 kts | 5° |
| 2026-04-21 17:17 | 43.70160 | 15.40911 | 35955 ft | 439 kts | 5° |
| 2026-04-21 17:18 | 43.76106 | 15.42803 | 35958 ft | 438 kts | 5° |
| 2026-04-21 17:18 | 43.82052 | 15.44722 | 35954 ft | 439 kts | 5° |
| 2026-04-21 17:19 | 43.87998 | 15.46621 | 35959 ft | 438 kts | 5° |
| 2026-04-21 17:19 | 43.93940 | 15.48524 | 35981 ft | 439 kts | 6° |
| 2026-04-21 17:20 | 43.99884 | 15.50434 | 35978 ft | 439 kts | 5° |
| 2026-04-21 17:20 | 44.05848 | 15.52365 | 35968 ft | 439 kts | 5° |
| 2026-04-21 17:21 | 44.11801 | 15.54290 | 35966 ft | 440 kts | 5° |
| 2026-04-21 17:21 | 44.17766 | 15.56216 | 35981 ft | 440 kts | 5° |
| 2026-04-21 17:22 | 44.23737 | 15.58149 | 35984 ft | 441 kts | 5° |
| 2026-04-21 17:22 | 44.29717 | 15.60086 | 35987 ft | 441 kts | 5° |
| 2026-04-21 17:23 | 44.35696 | 15.62032 | 36021 ft | 441 kts | 5° |
| 2026-04-21 17:23 | 44.41675 | 15.63995 | 36024 ft | 441 kts | 5° |
| 2026-04-21 17:24 | 44.47615 | 15.65927 | 36035 ft | 441 kts | 5° |
| 2026-04-21 17:24 | 44.53593 | 15.67892 | 36061 ft | 441 kts | 5° |
| 2026-04-21 17:25 | 44.59564 | 15.69857 | 36047 ft | 441 kts | 5° |
| 2026-04-21 17:25 | 44.65537 | 15.71821 | 36046 ft | 441 kts | 5° |
| 2026-04-21 17:26 | 44.71499 | 15.73798 | 36069 ft | 440 kts | 5° |
| 2026-04-21 17:26 | 44.77460 | 15.75772 | 36065 ft | 440 kts | 5° |
| 2026-04-21 17:27 | 44.83413 | 15.77746 | 36065 ft | 439 kts | 5° |
| 2026-04-21 17:27 | 44.89365 | 15.79717 | 36087 ft | 439 kts | 5° |
| 2026-04-21 17:28 | 44.95323 | 15.81686 | 36068 ft | 440 kts | 5° |
| 2026-04-21 17:28 | 45.01284 | 15.83670 | 36073 ft | 440 kts | 5° |
| 2026-04-21 17:29 | 45.07253 | 15.85663 | 36090 ft | 441 kts | 5° |
| 2026-04-21 17:29 | 45.13222 | 15.87654 | 36086 ft | 441 kts | 6° |
| 2026-04-21 17:30 | 45.19195 | 15.89672 | 36084 ft | 441 kts | 5° |
| 2026-04-21 17:30 | 45.25176 | 15.91635 | 36116 ft | 440 kts | 4° |
| 2026-04-21 17:31 | 45.31168 | 15.93481 | 36101 ft | 441 kts | 5° |
| 2026-04-21 17:31 | 45.37159 | 15.95352 | 36093 ft | 441 kts | 5° |
| 2026-04-21 17:32 | 45.43148 | 15.97242 | 36086 ft | 441 kts | 5° |
| 2026-04-21 17:32 | 45.49145 | 15.99100 | 36104 ft | 441 kts | 6° |
| 2026-04-21 17:33 | 45.55148 | 16.00995 | 36088 ft | 442 kts | 6° |
| 2026-04-21 17:33 | 45.61152 | 16.02877 | 36085 ft | 442 kts | 6° |
| 2026-04-21 17:34 | 45.67126 | 16.04764 | 36085 ft | 442 kts | 6° |
| 2026-04-21 17:34 | 45.73179 | 16.06679 | 36075 ft | 443 kts | 6° |
| 2026-04-21 17:35 | 45.79159 | 16.08580 | 36076 ft | 443 kts | 6° |
| 2026-04-21 17:35 | 45.85181 | 16.10489 | 36101 ft | 444 kts | 6° |
| 2026-04-21 17:36 | 45.91208 | 16.12427 | 36090 ft | 444 kts | 6° |
| 2026-04-21 17:36 | 45.97239 | 16.14340 | 36087 ft | 444 kts | 6° |
| 2026-04-21 17:37 | 46.03279 | 16.16266 | 36114 ft | 444 kts | 6° |
| 2026-04-21 17:37 | 46.09314 | 16.18198 | 35313 ft | 445 kts | 6° |
| 2026-04-21 17:38 | 46.12331 | 16.19166 | 34624 ft | 445 kts | 6° |
| 2026-04-21 17:38 | 46.15356 | 16.20140 | 33932 ft | 445 kts | 6° |
| 2026-04-21 17:38 | 46.18374 | 16.21113 | 33114 ft | 445 kts | 6° |
| 2026-04-21 17:38 | 46.21395 | 16.22084 | 32292 ft | 445 kts | 5° |
| 2026-04-21 17:39 | 46.24424 | 16.23066 | 31497 ft | 446 kts | 6° |
| 2026-04-21 17:39 | 46.27452 | 16.24056 | 30653 ft | 447 kts | 6° |
| 2026-04-21 17:39 | 46.30488 | 16.25039 | 29745 ft | 447 kts | 6° |
| 2026-04-21 17:39 | 46.33525 | 16.26011 | 28697 ft | 448 kts | 7° |
| 2026-04-21 17:40 | 46.36565 | 16.26808 | 27937 ft | 438 kts | 1° |
| 2026-04-21 17:40 | 46.39569 | 16.26915 | 27211 ft | 426 kts | 352° |
| 2026-04-21 17:40 | 46.42476 | 16.26366 | 26467 ft | 418 kts | 346° |
| 2026-04-21 17:40 | 46.45334 | 16.25654 | 25747 ft | 416 kts | 347° |
| 2026-04-21 17:41 | 46.48179 | 16.24965 | 25034 ft | 413 kts | 348° |
| 2026-04-21 17:41 | 46.50999 | 16.24297 | 24358 ft | 410 kts | 348° |
| 2026-04-21 17:41 | 46.53808 | 16.23632 | 23699 ft | 407 kts | 349° |
| 2026-04-21 17:41 | 46.56552 | 16.22975 | 22957 ft | 404 kts | 349° |
| 2026-04-21 17:42 | 46.59316 | 16.22382 | 22268 ft | 401 kts | 355° |
| 2026-04-21 17:42 | 46.62080 | 16.22760 | 21664 ft | 400 kts | 13° |
| 2026-04-21 17:42 | 46.64734 | 16.23945 | 21009 ft | 398 kts | 15° |
| 2026-04-21 17:42 | 46.67360 | 16.25171 | 20372 ft | 395 kts | 15° |
| 2026-04-21 17:43 | 46.69970 | 16.26391 | 19769 ft | 392 kts | 15° |
| 2026-04-21 17:43 | 46.72556 | 16.27598 | 19197 ft | 389 kts | 15° |
| 2026-04-21 17:43 | 46.75123 | 16.28793 | 18637 ft | 386 kts | 15° |
| 2026-04-21 17:43 | 46.77671 | 16.29978 | 18050 ft | 382 kts | 15° |
| 2026-04-21 17:44 | 46.80194 | 16.31152 | 17446 ft | 379 kts | 15° |
| 2026-04-21 17:44 | 46.82696 | 16.32317 | 16871 ft | 376 kts | 15° |
| 2026-04-21 17:44 | 46.85170 | 16.33476 | 16327 ft | 372 kts | 15° |
| 2026-04-21 17:44 | 46.87630 | 16.34633 | 15786 ft | 369 kts | 15° |
| 2026-04-21 17:45 | 46.90061 | 16.35779 | 15246 ft | 366 kts | 15° |
| 2026-04-21 17:45 | 46.92482 | 16.36922 | 14731 ft | 364 kts | 15° |
| 2026-04-21 17:45 | 46.94880 | 16.38055 | 14230 ft | 361 kts | 15° |
| 2026-04-21 17:45 | 46.97259 | 16.39180 | 13703 ft | 358 kts | 15° |
| 2026-04-21 17:46 | 46.99622 | 16.40294 | 13187 ft | 355 kts | 15° |
| 2026-04-21 17:46 | 47.01962 | 16.41388 | 12675 ft | 351 kts | 15° |
| 2026-04-21 17:46 | 47.04278 | 16.42465 | 12138 ft | 347 kts | 15° |
| 2026-04-21 17:46 | 47.06567 | 16.43519 | 11595 ft | 344 kts | 15° |
| 2026-04-21 17:47 | 47.08846 | 16.44554 | 11184 ft | 342 kts | 15° |
| 2026-04-21 17:47 | 47.11116 | 16.45585 | 11112 ft | 341 kts | 15° |
| 2026-04-21 17:47 | 47.13380 | 16.46614 | 11113 ft | 341 kts | 15° |
| 2026-04-21 17:47 | 47.15650 | 16.47639 | 11114 ft | 341 kts | 15° |
| 2026-04-21 17:48 | 47.17155 | 16.48323 | 11117 ft | 341 kts | 15° |
| 2026-04-21 17:48 | 47.20182 | 16.49702 | 11116 ft | 341 kts | 15° |
| 2026-04-21 17:48 | 47.22461 | 16.50730 | 11116 ft | 341 kts | 14° |
| 2026-04-21 17:48 | 47.24771 | 16.51494 | 11121 ft | 339 kts | 9° |
| 2026-04-21 17:49 | 47.27085 | 16.52144 | 10930 ft | 338 kts | 9° |
| 2026-04-21 17:49 | 47.29392 | 16.52806 | 10683 ft | 337 kts | 9° |
| 2026-04-21 17:49 | 47.31669 | 16.53470 | 10431 ft | 328 kts | 9° |
| 2026-04-21 17:49 | 47.33866 | 16.54107 | 10181 ft | 316 kts | 9° |
| 2026-04-21 17:50 | 47.35988 | 16.54721 | 9931 ft | 306 kts | 10° |
| 2026-04-21 17:50 | 47.38030 | 16.55319 | 9780 ft | 292 kts | 10° |
| 2026-04-21 17:50 | 47.39983 | 16.55891 | 9641 ft | 280 kts | 10° |
| 2026-04-21 17:50 | 47.41851 | 16.56439 | 9504 ft | 270 kts | 10° |
| 2026-04-21 17:51 | 47.43691 | 16.56981 | 9368 ft | 267 kts | 10° |
| 2026-04-21 17:51 | 47.45505 | 16.57515 | 9239 ft | 266 kts | 10° |
| 2026-04-21 17:51 | 47.47315 | 16.58047 | 9104 ft | 265 kts | 10° |
| 2026-04-21 17:51 | 47.49126 | 16.58579 | 8969 ft | 265 kts | 11° |
| 2026-04-21 17:52 | 47.50926 | 16.59113 | 8825 ft | 264 kts | 11° |
| 2026-04-21 17:52 | 47.52718 | 16.59639 | 8702 ft | 262 kts | 11° |
| 2026-04-21 17:52 | 47.54514 | 16.60167 | 8566 ft | 262 kts | 11° |
| 2026-04-21 17:52 | 47.56299 | 16.60691 | 8439 ft | 262 kts | 11° |
| 2026-04-21 17:53 | 47.58084 | 16.61215 | 8305 ft | 261 kts | 11° |
| 2026-04-21 17:53 | 47.59853 | 16.61737 | 8181 ft | 260 kts | 11° |
| 2026-04-21 17:53 | 47.61625 | 16.62266 | 8049 ft | 260 kts | 11° |
| 2026-04-21 17:53 | 47.63373 | 16.62787 | 7920 ft | 259 kts | 11° |
| 2026-04-21 17:54 | 47.65141 | 16.63309 | 7791 ft | 259 kts | 11° |
| 2026-04-21 17:54 | 47.66900 | 16.63831 | 7662 ft | 258 kts | 11° |
| 2026-04-21 17:54 | 47.68654 | 16.64352 | 7486 ft | 257 kts | 11° |
| 2026-04-21 17:54 | 47.70400 | 16.64870 | 7130 ft | 255 kts | 11° |
| 2026-04-21 17:55 | 47.72133 | 16.65385 | 6740 ft | 254 kts | 11° |
| 2026-04-21 17:55 | 47.73859 | 16.65899 | 6325 ft | 253 kts | 12° |
| 2026-04-21 17:55 | 47.75580 | 16.66410 | 5923 ft | 251 kts | 11° |
| 2026-04-21 17:55 | 47.76733 | 16.66751 | 5654 ft | 249 kts | 11° |
| 2026-04-21 17:56 | 47.78426 | 16.67254 | 5258 ft | 247 kts | 12° |
| 2026-04-21 17:56 | 47.80106 | 16.67760 | 4859 ft | 245 kts | 11° |
| 2026-04-21 17:56 | 47.81768 | 16.68241 | 4546 ft | 239 kts | 9° |
| 2026-04-21 17:56 | 47.83376 | 16.68485 | 4431 ft | 226 kts | 3° |
| 2026-04-21 17:57 | 47.84908 | 16.68488 | 4288 ft | 216 kts | 358° |
| 2026-04-21 17:57 | 47.86392 | 16.68291 | 4005 ft | 213 kts | 354° |
| 2026-04-21 17:57 | 47.87823 | 16.67900 | 3853 ft | 209 kts | 349° |
| 2026-04-21 17:57 | 47.89187 | 16.67368 | 3842 ft | 196 kts | 347° |
| 2026-04-21 17:58 | 47.90455 | 16.66852 | 3841 ft | 184 kts | 347° |
| 2026-04-21 17:58 | 47.91654 | 16.66363 | 3847 ft | 174 kts | 347° |
| 2026-04-21 17:58 | 47.92811 | 16.65893 | 3839 ft | 173 kts | 347° |
| 2026-04-21 17:58 | 47.93964 | 16.65415 | 3596 ft | 171 kts | 347° |
| 2026-04-21 17:59 | 47.95077 | 16.64945 | 3357 ft | 159 kts | 347° |
| 2026-04-21 17:59 | 47.96078 | 16.64521 | 3183 ft | 141 kts | 347° |
| 2026-04-21 17:59 | 47.96976 | 16.64142 | 3044 ft | 127 kts | 348° |
| 2026-04-21 17:59 | 47.97836 | 16.63781 | 2930 ft | 130 kts | 348° |
| 2026-04-21 18:00 | 47.98698 | 16.63418 | 2752 ft | 129 kts | 348° |
| 2026-04-21 18:00 | 47.99565 | 16.63053 | 2567 ft | 129 kts | 348° |
| 2026-04-21 18:00 | 48.00427 | 16.62690 | 2387 ft | 128 kts | 347° |
| 2026-04-21 18:00 | 48.01286 | 16.62329 | 2210 ft | 128 kts | 347° |
| 2026-04-21 18:01 | 48.02151 | 16.61969 | 2032 ft | 130 kts | 348° |
| 2026-04-21 18:01 | 48.03018 | 16.61612 | 1844 ft | 129 kts | 347° |
| 2026-04-21 18:01 | 48.03879 | 16.61243 | 1695 ft | 130 kts | 346° |
| 2026-04-21 18:01 | 48.04756 | 16.60874 | 1497 ft | 131 kts | 346° |
| 2026-04-21 18:02 | 48.05619 | 16.60511 | 1327 ft | 128 kts | 345° |
| 2026-04-21 18:02 | 48.06476 | 16.60147 | 1131 ft | 127 kts | 345° |
| 2026-04-21 18:02 | 48.07336 | 16.59781 | 966 ft | 130 kts | 344° |
| 2026-04-21 18:02 | 48.08199 | 16.59412 | 786 ft | 128 kts | 345° |
| 2026-04-21 18:03 | 48.09053 | 16.59054 | 639 ft | 126 kts | 344° |
| 2026-04-21 18:03 | 48.09797 | 16.58739 | 613 ft | 90 kts | 344° |
| 2026-04-21 18:03 | 48.10236 | 16.58558 | 623 ft | 43 kts | 345° |
| 2026-04-21 18:03 | 48.10506 | 16.58441 | 615 ft | 38 kts | 344° |
| 2026-04-21 18:04 | 48.10750 | 16.58340 | 621 ft | 32 kts | 344° |
| 2026-04-21 18:04 | 48.10929 | 16.58252 | 616 ft | 23 kts | 332° |
| 2026-04-21 18:04 | 48.11043 | 16.58070 | 619 ft | 20 kts | 300° |
| 2026-04-21 18:04 | 48.11098 | 16.57901 | 621 ft | 21 kts | 295° |
| 2026-04-21 18:05 | 48.11153 | 16.57728 | 622 ft | 13 kts | 296° |
| 2026-04-21 18:05 | 48.11188 | 16.57625 | 623 ft | 14 kts | 296° |
| 2026-04-21 18:05 | 48.11231 | 16.57492 | 619 ft | 17 kts | 295° |
| 2026-04-21 18:05 | 48.11276 | 16.57356 | 609 ft | 9 kts | 297° |
| 2026-04-21 18:06 | 48.11349 | 16.57357 | 609 ft | 13 kts | 25° |
| 2026-04-21 18:06 | 48.11418 | 16.57387 | 619 ft | 11 kts | 340° |
| 2026-04-21 18:06 | 48.11467 | 16.57261 | 623 ft | 18 kts | 296° |
| 2026-04-21 18:06 | 48.11500 | 16.57175 | 614 ft | 6 kts | 323° |
| 2026-04-21 18:07 | 48.11537 | 16.57193 | 609 ft | 8 kts | 26° |
| 2026-04-21 18:07 | 48.11571 | 16.57218 | 614 ft | 3 kts | 27° |
| 2026-04-21 18:07 | 48.11581 | 16.57225 | 621 ft | 0 kts | 26° |